Main page
METAR-TAF:

METAR-TAF

Airports :

Amman Civil Airport

Amman, Jordan

latitude: 31-59N, longitude: 035-59E, elevation: 767 m

Current weather observation

The report was made 34 minutes ago, at 12:00 UTC
Wind 10 kt from the West/Southwest
Temperature 34°C
Humidity 25%
Pressure 1013 hPa
Visibility: 6000 m
Few clouds at a height of 3000 ft

METAR: OJAM 251200Z 25010KT 6000 FEW030 34/11 Q1013 NOSIG

Time: 15:34 (12:34 UTC)

Forecast

The report was made 1 hour and 34 minutes ago, at 11:00 UTC
Forecast valid from 25 at 12 UTC to 26 at 18 UTC
Wind 10 kt from the Northwest
Visibility: 6000 m

TAF: OJAM 251100Z 2512/2618 32010KT 6000 NSC

Weather observations and forecasts of more than 4000 airports (METAR and TAF reports).

The available stations are represented by yellow and red dots on the map.

Hover mouse over dot to see the name of the station.

Then click to see weather observations and forecasts.

To change the map : click on the green buttons with a black cross to zoom in, on the green button with a dash to zoom out, or on the green arrows for adjacent maps.


METAR-TAF: